Search for airport 
image banner adimage banner adimage banner ad
image banner ad

PN03 - Abington Memorial Hospital

Located in Abington, United States

ICAO - PN03, IATA -

Data provided by Airmate  

General information

Coordinates: N40°7'9" W75°7'12"
Elevation is 436 feet MSL.
Magnetic variation is -12° East
View others Airports in Pennsylvania

Operational data

Special qualification required
Current time UTC:
Current local time:
Weather at : KPNE - Northeast Philadelphia ( 10 km )
METAR: KPNE 182154Z 25009KT 10SM CLR 26/06 A3026 RMK AO2 SLP247 T02610061
TAF: KPNE 181732Z 1818/1918 25010KT P6SM SKC FM190000 VRB04KT P6SM SKC
View NOTAMs / SUP AIP / TFR affecting this airport [VIEW]
Communications frequencies: [VIEW]

Runways:

Airport contact information

Address: Abington United States

Satellite view of PN03